createdAt,value
2018-09-05T00:02:08.293Z,99.90
2018-09-05T00:07:01.597Z,99.90
2018-09-05T00:11:55.691Z,99.90
2018-09-05T00:16:49.044Z,99.90
2018-09-05T00:21:42.398Z,99.90
2018-09-05T00:26:35.692Z,99.90
2018-09-05T00:31:29.054Z,99.90
2018-09-05T00:36:22.397Z,99.90
2018-09-05T00:41:15.695Z,99.90
2018-09-05T00:46:08.982Z,99.90
2018-09-05T00:51:02.241Z,99.90
2018-09-05T00:55:55.526Z,99.90
2018-09-05T01:00:49.872Z,99.90
2018-09-05T01:05:43.174Z,99.90
2018-09-05T01:10:36.524Z,99.90
2018-09-05T01:15:30.116Z,99.90
2018-09-05T01:20:23.427Z,99.90
2018-09-05T01:25:16.666Z,99.90
2018-09-05T01:30:09.996Z,99.90
2018-09-05T01:35:03.361Z,99.90
2018-09-05T01:39:56.694Z,99.90
2018-09-05T01:44:50.106Z,99.90
2018-09-05T01:49:43.472Z,99.90
2018-09-05T01:54:36.847Z,99.90
2018-09-05T01:59:30.186Z,99.90
2018-09-05T02:04:23.527Z,99.90
2018-09-05T02:09:16.872Z,99.90
2018-09-05T02:14:10.819Z,99.90
2018-09-05T02:19:04.861Z,99.90
2018-09-05T02:23:58.151Z,99.90
2018-09-05T02:28:51.613Z,99.90
2018-09-05T02:33:44.907Z,99.90
2018-09-05T02:38:38.213Z,99.90
2018-09-05T02:43:37.401Z,99.90
2018-09-05T02:48:30.784Z,99.90
2018-09-05T02:53:24.073Z,99.90
2018-09-05T02:58:17.431Z,99.90
2018-09-05T03:03:10.777Z,99.90
2018-09-05T03:08:04.108Z,99.90
2018-09-05T03:12:57.417Z,99.90
2018-09-05T03:18:20.160Z,99.90
2018-09-05T03:23:13.486Z,99.90
2018-09-05T03:28:07.476Z,99.90
2018-09-05T03:33:01.416Z,99.90
2018-09-05T03:37:54.741Z,99.90
2018-09-05T03:42:48.047Z,99.90
2018-09-05T03:47:41.375Z,99.90
2018-09-05T03:52:34.653Z,99.90
2018-09-05T03:57:28.005Z,99.90
2018-09-05T04:02:21.302Z,99.90
2018-09-05T04:07:14.695Z,99.90
2018-09-05T04:12:08.029Z,99.90
2018-09-05T04:17:01.261Z,99.90
2018-09-05T04:21:54.537Z,99.90
2018-09-05T04:26:47.838Z,99.90
2018-09-05T04:31:41.147Z,99.90
2018-09-05T04:36:34.465Z,99.90
2018-09-05T04:41:27.800Z,99.90
2018-09-05T04:46:21.139Z,99.90
2018-09-05T04:51:14.505Z,99.90
2018-09-05T04:56:07.859Z,99.90
2018-09-05T05:01:01.157Z,99.90
2018-09-05T05:05:54.598Z,99.90
2018-09-05T05:10:47.989Z,99.90
2018-09-05T05:15:41.295Z,99.90
2018-09-05T05:20:35.120Z,99.90
2018-09-05T05:25:28.452Z,99.90
2018-09-05T05:30:21.745Z,99.90
2018-09-05T05:35:15.055Z,99.90
2018-09-05T05:40:08.431Z,99.90
2018-09-05T05:45:02.171Z,99.90
2018-09-05T05:49:55.584Z,99.90
2018-09-05T05:54:49.121Z,99.90
2018-09-05T05:59:42.411Z,99.90
2018-09-05T06:04:35.919Z,99.90
2018-09-05T06:09:29.271Z,99.90
2018-09-05T06:14:22.585Z,99.90
2018-09-05T06:19:16.323Z,99.90
2018-09-05T06:24:09.711Z,99.90
2018-09-05T06:29:03.346Z,99.90
2018-09-05T06:33:56.798Z,99.90
2018-09-05T06:38:50.846Z,99.90
2018-09-05T06:43:44.109Z,99.90
2018-09-05T06:48:37.617Z,99.90
2018-09-05T06:53:31.940Z,99.90
2018-09-05T06:58:25.294Z,99.90
2018-09-05T07:03:19.730Z,99.90
2018-09-05T07:08:13.088Z,99.90
2018-09-05T07:13:06.387Z,99.90
2018-09-05T07:18:00.274Z,99.90
2018-09-05T07:22:53.570Z,99.90
2018-09-05T07:27:47.705Z,99.90
2018-09-05T07:32:41.771Z,99.90
2018-09-05T07:37:35.075Z,99.90
2018-09-05T07:42:28.385Z,99.90
2018-09-05T07:47:21.779Z,99.90
2018-09-05T07:52:15.091Z,99.90
2018-09-05T07:57:08.458Z,99.90
2018-09-05T08:02:01.914Z,99.90
2018-09-05T08:06:55.220Z,99.90
2018-09-05T08:11:48.542Z,99.90
2018-09-05T08:16:41.804Z,99.90
2018-09-05T08:21:35.089Z,99.90
2018-09-05T08:26:28.391Z,99.90
2018-09-05T08:31:21.701Z,99.90
2018-09-05T08:36:15.406Z,99.90
2018-09-05T08:41:09.922Z,99.90
2018-09-05T08:46:03.699Z,99.90
2018-09-05T08:56:40.896Z,99.30
2018-09-05T09:01:37.696Z,98.10
2018-09-05T09:06:31.038Z,96.70
2018-09-05T09:11:24.331Z,95.70
2018-09-05T09:16:18.467Z,96.30
2018-09-05T09:21:11.792Z,97.20
2018-09-05T09:26:05.375Z,96.70
2018-09-05T09:30:58.688Z,95.60
2018-09-05T09:35:52.032Z,96.30
2018-09-05T09:40:46.005Z,95.70
2018-09-05T09:45:39.325Z,94.50
2018-09-05T09:50:32.700Z,94.40
2018-09-05T09:55:26.076Z,92.60
2018-09-05T10:00:24.835Z,92.70
2018-09-05T10:05:23.873Z,93.00
2018-09-05T10:10:23.239Z,92.70
2018-09-05T10:15:21.992Z,92.00
2018-09-05T10:20:15.366Z,93.20
2018-09-05T10:25:08.661Z,93.80
2018-09-05T10:30:01.999Z,92.40
2018-09-05T10:34:56.764Z,90.90
2018-09-05T10:39:51.099Z,90.00
2018-09-05T10:44:44.385Z,88.60
2018-09-05T10:49:38.080Z,87.80
2018-09-05T10:54:31.388Z,87.90
2018-09-05T10:59:24.670Z,87.80
2018-09-05T11:04:18.171Z,87.20
2018-09-05T11:09:12.321Z,86.10
2018-09-05T11:14:06.133Z,87.70
2018-09-05T11:18:59.425Z,87.90
2018-09-05T11:23:52.789Z,86.10
2018-09-05T11:28:46.127Z,86.00
2018-09-05T11:33:39.611Z,84.50
2018-09-05T11:38:32.957Z,83.80
2018-09-05T11:43:26.560Z,81.10
2018-09-05T11:48:19.880Z,78.80
2018-09-05T11:53:13.489Z,80.00
2018-09-05T11:58:06.936Z,81.60
2018-09-05T12:03:00.313Z,77.80
2018-09-05T12:07:54.150Z,80.70
2018-09-05T12:12:47.408Z,78.20
2018-09-05T12:17:40.863Z,77.50
2018-09-05T12:22:34.398Z,76.40
2018-09-05T12:27:27.871Z,75.90
2018-09-05T12:32:22.347Z,74.90
2018-09-05T12:37:17.445Z,73.90
2018-09-05T12:42:11.340Z,76.10
2018-09-05T12:47:04.805Z,77.30
2018-09-05T12:51:58.781Z,75.00
2018-09-05T12:56:52.105Z,75.30
2018-09-05T13:01:45.379Z,76.60
2018-09-05T13:06:39.869Z,74.50
2018-09-05T13:11:33.240Z,76.60
2018-09-05T13:16:26.995Z,74.60
2018-09-05T13:21:20.306Z,74.00
2018-09-05T13:26:13.663Z,73.10
2018-09-05T13:31:07.119Z,75.20
2018-09-05T13:36:00.624Z,75.30
2018-09-05T13:40:54.167Z,76.30
2018-09-05T13:45:47.501Z,75.00
2018-09-05T13:50:40.872Z,75.20
2018-09-05T13:55:34.174Z,74.10
2018-09-05T14:00:27.485Z,74.30
2018-09-05T14:05:20.767Z,73.20
2018-09-05T14:10:15.526Z,73.60
2018-09-05T14:15:09.080Z,74.70
2018-09-05T14:20:04.989Z,74.90
2018-09-05T14:25:01.094Z,75.30
2018-09-05T14:29:54.469Z,75.10
2018-09-05T14:34:47.852Z,74.10
2018-09-05T14:39:41.173Z,73.60
2018-09-05T14:44:34.607Z,73.60
2018-09-05T14:49:27.861Z,73.10
2018-09-05T14:54:21.224Z,73.90
2018-09-05T14:59:14.486Z,73.20
2018-09-05T15:04:07.891Z,75.40
2018-09-05T15:09:01.206Z,74.90
2018-09-05T15:13:54.784Z,74.40
2018-09-05T15:18:48.119Z,74.90
2018-09-05T15:23:41.457Z,72.80
2018-09-05T15:28:34.928Z,72.10
2018-09-05T15:33:28.245Z,71.90
2018-09-05T15:38:21.617Z,71.80
2018-09-05T15:43:14.975Z,71.50
2018-09-05T15:48:08.289Z,70.80
2018-09-05T15:53:01.811Z,71.10
2018-09-05T15:57:55.162Z,71.40
2018-09-05T16:02:48.705Z,71.20
2018-09-05T16:07:42.137Z,71.40
2018-09-05T16:12:35.455Z,72.50
2018-09-05T16:17:28.778Z,72.80
2018-09-05T16:22:22.110Z,72.90
2018-09-05T16:27:16.319Z,72.60
2018-09-05T16:32:09.609Z,72.90
2018-09-05T16:37:02.944Z,72.20
2018-09-05T16:41:58.076Z,72.70
2018-09-05T16:46:51.500Z,72.70
2018-09-05T16:51:44.917Z,73.30
2018-09-05T16:56:38.296Z,74.10
2018-09-05T17:01:31.663Z,78.20
2018-09-05T17:06:25.078Z,78.90
2018-09-05T17:11:18.905Z,83.90
2018-09-05T17:16:12.330Z,84.70
2018-09-05T17:21:05.714Z,87.70
2018-09-05T17:26:00.174Z,90.40
2018-09-05T17:30:53.567Z,90.10
2018-09-05T17:35:46.981Z,90.70
2018-09-05T17:40:40.535Z,91.70
2018-09-05T17:45:33.981Z,92.40
2018-09-05T17:50:28.703Z,92.80
2018-09-05T17:55:22.024Z,92.80
2018-09-05T18:00:15.494Z,92.20
2018-09-05T18:05:08.915Z,92.70
2018-09-05T18:10:02.357Z,94.60
2018-09-05T18:14:55.691Z,96.30
2018-09-05T18:19:49.079Z,97.90
2018-09-05T18:24:42.685Z,98.50
2018-09-05T18:29:36.938Z,99.90
2018-09-05T18:34:30.266Z,99.90
2018-09-05T18:39:24.418Z,99.90
2018-09-05T18:44:17.746Z,99.90
2018-09-05T18:49:11.110Z,99.90
2018-09-05T18:54:04.450Z,99.90
2018-09-05T18:58:58.649Z,99.90
2018-09-05T19:03:51.935Z,99.90
2018-09-05T19:08:45.607Z,99.90
2018-09-05T19:13:39.004Z,99.90
2018-09-05T19:18:33.041Z,99.90
2018-09-05T19:23:26.372Z,99.90
2018-09-05T19:28:19.670Z,99.90
2018-09-05T19:33:13.120Z,99.90
2018-09-05T19:38:06.579Z,99.90
2018-09-05T19:42:59.932Z,99.90
2018-09-05T19:47:53.307Z,99.90
2018-09-05T19:52:46.642Z,99.90
2018-09-05T19:57:39.997Z,99.90
2018-09-05T20:02:33.342Z,99.90
2018-09-05T20:07:26.690Z,99.90
2018-09-05T20:12:20.963Z,99.90
2018-09-05T20:17:15.007Z,99.90
2018-09-05T20:22:10.283Z,99.90
2018-09-05T20:27:03.755Z,99.90
2018-09-05T20:31:57.060Z,99.90
2018-09-05T20:36:51.347Z,99.90
2018-09-05T20:41:45.351Z,99.90
2018-09-05T20:46:39.082Z,99.90
2018-09-05T20:51:32.413Z,99.90
2018-09-05T20:56:25.775Z,99.90
2018-09-05T21:01:19.205Z,99.90
2018-09-05T21:06:12.503Z,99.90
2018-09-05T21:11:05.862Z,99.90
2018-09-05T21:15:59.220Z,99.90
2018-09-05T21:20:52.653Z,99.90
2018-09-05T21:25:45.956Z,99.90
2018-09-05T21:30:39.271Z,99.90
2018-09-05T21:35:32.999Z,99.90
2018-09-05T21:40:26.406Z,99.90
2018-09-05T21:45:19.775Z,99.90
2018-09-05T21:50:13.735Z,99.90
2018-09-05T21:55:07.169Z,99.90
2018-09-05T22:00:00.595Z,99.90
2018-09-05T22:04:54.327Z,99.90
2018-09-05T22:09:47.677Z,99.90
2018-09-05T22:14:41.611Z,99.90
2018-09-05T22:19:34.942Z,99.90
2018-09-05T22:24:28.232Z,99.90
2018-09-05T22:29:21.520Z,99.90
2018-09-05T22:34:14.880Z,99.90
2018-09-05T22:39:10.174Z,99.90
2018-09-05T22:44:20.389Z,99.90
2018-09-05T22:52:37.743Z,99.90
2018-09-05T22:59:47.159Z,99.90
2018-09-05T23:04:59.038Z,99.90
2018-09-05T23:10:09.534Z,99.90
2018-09-05T23:15:19.859Z,99.90
2018-09-05T23:21:25.366Z,99.90
2018-09-05T23:26:19.322Z,99.90
2018-09-05T23:31:12.723Z,99.90
2018-09-05T23:36:06.135Z,99.90
2018-09-05T23:40:59.388Z,99.90
2018-09-05T23:45:52.702Z,99.90
2018-09-05T23:50:46.155Z,99.90
2018-09-05T23:55:39.495Z,99.90
